Tasman Sea — WDB5559 — position and weather

sailwx.info

Track history (hours):
 
Tides and Currents Weather Stations Pressure Air Temp Water Temp Dewpoint Dewpoint Depression Visibility Wind Speed Wind Dir Waves Ship Positions

Tasman Sea

Owner: Kirby Offshore Marine, LLC, Staten Island, NY. More information available from US FCC via Universal Licensing System and Coast Guard Vessel Documentation Center.

Last reported at 2017-Oct-23 07:59 UTC. Time now 2017-Oct-23 08:28 UTC.
Position N 42°23' W 071°03'.

Length 134 m; draft 6.7 m.

Type: Tug. MMSI: 366910960.

Date/timePositionNaut miles runAvg speedWind from/ knotsBaromVisibWave heightAir tempDewpointWater temp
2017-Oct-23 07:59N 42°23' W 071°03'0 0.0
2017-Oct-23 07:29N 42°23' W 071°03'0 0.0
2017-Oct-23 06:59N 42°23' W 071°03'0 0.0
2017-Oct-23 06:29N 42°23' W 071°03'0 0.0
2017-Oct-23 05:59N 42°23' W 071°03'0 0.0
2017-Oct-23 05:29N 42°23' W 071°03'0 0.0
2017-Oct-23 04:59N 42°23' W 071°03'0 0.0
2017-Oct-23 04:29N 42°23' W 071°03'0 0.0
2017-Oct-23 03:59N 42°23' W 071°03'0 0.0
2017-Oct-23 03:26N 42°23' W 071°03'0 0.0
2017-Oct-23 02:59N 42°23' W 071°03'0 0.0
2017-Oct-23 02:29N 42°23' W 071°03'0 0.1
2017-Oct-23 01:59N 42°23' W 071°03'0 0.0
2017-Oct-23 01:29N 42°23' W 071°03'0 0.0
2017-Oct-23 01:00N 42°23' W 071°03'0 0.0
2017-Oct-23 00:30N 42°23' W 071°03'0 0.1
2017-Oct-23 00:00N 42°23' W 071°03'2 3.5
2017-Oct-22 23:30N 42°22' W 071°02'3 6.2
2017-Oct-22 23:00N 42°20' W 070°59'3 5.4
2017-Oct-22 22:30N 42°21' W 070°56'3 6.2
2017-Oct-22 22:00N 42°23' W 070°52'3 6.9
2017-Oct-22 21:30N 42°22' W 070°48'4 7.2
2017-Oct-22 21:00N 42°19' W 070°44'4 7.3
2017-Oct-22 20:30N 42°16' W 070°41'4 7.2
2017-Oct-22 20:00N 42°13' W 070°39'4 7.3
2017-Oct-22 19:30N 42°10' W 070°36'4 7.3
2017-Oct-22 19:00N 42°07' W 070°34'4 7.3
2017-Oct-22 18:30N 42°03' W 070°33'4 7.3
2017-Oct-22 18:00N 41°60' W 070°31'4 7.4
2017-Oct-22 17:30N 41°56' W 070°30'4 7.3
2017-Oct-22 17:00N 41°53' W 070°29'3 7.1
2017-Oct-22 16:30N 41°49' W 070°28'13 6.8
2017-Oct-22 14:38N 41°41' W 070°41'1 6.2
2017-Oct-22 14:30N 41°40' W 070°41'35 7.0
2017-Oct-22 09:35N 41°15' W 071°13'1 7.2
2017-Oct-22 09:30N 41°14' W 071°13'4 7.2
2017-Oct-22 09:00N 41°12' W 071°16'9 6.7
2017-Oct-22 07:41N 41°07' W 071°26'18 7.1
2017-Oct-22 05:09N 40°60' W 071°48'1 7.2
2017-Oct-22 05:00N 40°60' W 071°49'4 7.3
2017-Oct-22 04:30N 40°59' W 071°54'4 7.3
2017-Oct-22 04:00N 40°57' W 071°58'4 7.3
2017-Oct-22 03:28N 40°56' W 072°03'4 7.5
2017-Oct-22 03:00N 40°54' W 072°07'4 7.6
2017-Oct-22 02:28N 40°53' W 072°12'4 7.6
2017-Oct-22 02:00N 40°52' W 072°17'10 7.5
2017-Oct-22 00:37N 40°48' W 072°30'19 7.4
2017-Oct-21 22:06N 40°40' W 072°52'7 7.2
2017-Oct-21 21:06N 40°38' W 073°01'5 7.1
2017-Oct-21 20:24N 40°36' W 073°07'3 7.1
2017-Oct-21 19:59N 40°35' W 073°11'4 7.1
2017-Oct-21 19:27N 40°34' W 073°15'18 7.3
2017-Oct-21 16:57N 40°30' W 073°39'11 7.3
2017-Oct-21 15:28N 40°27' W 073°52'4 6.7
2017-Oct-21 14:56N 40°28' W 073°57'3 6.9
2017-Oct-21 14:30N 40°29' W 074°01'9 6.5
2017-Oct-21 13:04N 40°30' W 074°13'2 0.1
2017-Oct-20 07:25N 40°31' W 074°15'0 0.1
2017-Oct-20 06:59N 40°31' W 074°15'2 3.3
2017-Oct-20 06:30N 40°33' W 074°15'4 7.4
2017-Oct-20 06:00N 40°36' W 074°12'3 6.7
2017-Oct-20 05:31N 40°39' W 074°10'4 7.1
2017-Oct-20 05:01N 40°39' W 074°05'3 5.7
2017-Oct-20 04:31N 40°40' W 074°02'0 0.1
2017-Oct-20 03:59N 40°40' W 074°02'0 0.2
2017-Oct-20 03:29N 40°40' W 074°02'0 0.2
2017-Oct-20 02:59N 40°40' W 074°02'0 0.1
2017-Oct-20 02:29N 40°40' W 074°02'0 0.0
2017-Oct-20 01:59N 40°40' W 074°02'0 0.0
2017-Oct-20 01:29N 40°40' W 074°02'0 0.0
2017-Oct-20 00:59N 40°40' W 074°02'0 0.0
2017-Oct-20 00:29N 40°40' W 074°02'0 0.1
2017-Oct-20 00:00N 40°40' W 074°02'4 7.7
2017-Oct-19 23:30N 40°39' W 074°07'0 0.0
2017-Oct-19 22:59N 40°39' W 074°07'0 0.0
2017-Oct-19 22:26N 40°39' W 074°07'0 0.0
2017-Oct-19 21:56N 40°39' W 074°07'0 0.0
2017-Oct-19 21:29N 40°39' W 074°07'0 0.0
2017-Oct-19 20:32N 40°39' W 074°07'0 0.1
2017-Oct-19 20:23N 40°39' W 074°07'0 0.0
2017-Oct-19 19:59N 40°39' W 074°07'0 0.0
2017-Oct-19 19:30N 40°39' W 074°07'2 4.6
2017-Oct-19 19:00N 40°38' W 074°10'0 0.3
2017-Oct-19 18:29N 40°39' W 074°10'0 0.0
2017-Oct-19 17:59N 40°39' W 074°10'0 0.0
2017-Oct-19 17:26N 40°39' W 074°10'0 0.0
2017-Oct-19 16:56N 40°38' W 074°10'0 0.0
2017-Oct-19 16:29N 40°39' W 074°10'0 0.0
2017-Oct-19 15:53N 40°39' W 074°10'0 0.0
2017-Oct-19 15:29N 40°39' W 074°10'0 0.0
2017-Oct-19 14:59N 40°39' W 074°10'0 0.0
2017-Oct-19 14:29N 40°39' W 074°10'0 0.0
2017-Oct-19 13:59N 40°39' W 074°10'0 0.0
2017-Oct-19 13:26N 40°39' W 074°10'0 0.0
2017-Oct-19 12:59N 40°39' W 074°10'0 0.0
2017-Oct-19 12:29N 40°39' W 074°10'0 0.0
2017-Oct-19 11:59N 40°39' W 074°10'0 0.0
2017-Oct-19 11:29N 40°39' W 074°10'0 0.6
2017-Oct-19 11:00N 40°38' W 074°09'4 8.7
2017-Oct-19 10:30N 40°39' W 074°04'1 1.5
2017-Oct-19 10:00N 40°39' W 074°03'0 0.1
2017-Oct-19 09:30N 40°39' W 074°03'0 0.3
2017-Oct-19 09:00N 40°39' W 074°03'0 0.2
2017-Oct-19 08:30N 40°39' W 074°03'0 0.0
2017-Oct-19 08:00N 40°39' W 074°03'0 0.0
2017-Oct-19 07:30N 40°39' W 074°03'0 0.0
2017-Oct-19 07:00N 40°39' W 074°03'0 0.0
2017-Oct-19 06:30N 40°39' W 074°03'0 0.0
2017-Oct-19 06:00N 40°39' W 074°03'0 0.0
2017-Oct-19 05:30N 40°39' W 074°03'0 0.0
2017-Oct-19 05:00N 40°39' W 074°03'0 0.0
2017-Oct-19 04:30N 40°39' W 074°03'0 0.1
2017-Oct-19 04:00N 40°39' W 074°03'0 0.1
2017-Oct-19 03:30N 40°39' W 074°03'0 0.1
2017-Oct-19 03:00N 40°39' W 074°03'0 0.3
2017-Oct-19 02:30N 40°39' W 074°03'0 0.1
2017-Oct-19 02:00N 40°39' W 074°03'0 0.0
2017-Oct-19 01:30N 40°39' W 074°03'0 0.0
2017-Oct-19 01:00N 40°39' W 074°03'0 0.0
2017-Oct-19 00:30N 40°39' W 074°03'0 0.0
2017-Oct-19 00:00N 40°39' W 074°03'0 0.0
2017-Oct-18 23:30N 40°39' W 074°03'0 0.1
2017-Oct-18 23:00N 40°39' W 074°03'0 0.0
2017-Oct-18 22:30N 40°39' W 074°03'0 0.0
2017-Oct-18 22:00N 40°39' W 074°03'0 0.0
2017-Oct-18 21:30N 40°39' W 074°03'0 0.1
2017-Oct-18 21:00N 40°39' W 074°03'0 0.1
2017-Oct-18 20:30N 40°39' W 074°03'0 0.3
2017-Oct-18 20:00N 40°39' W 074°03'0 0.1
2017-Oct-18 19:30N 40°39' W 074°03'0 0.0
2017-Oct-18 19:00N 40°39' W 074°03'0 0.1
2017-Oct-18 18:30N 40°39' W 074°03'0 0.0
2017-Oct-18 18:01N 40°39' W 074°03'0 0.5
2017-Oct-18 17:30N 40°39' W 074°03'5 9.6
2017-Oct-18 17:00N 40°38' W 074°10'0 0.4
2017-Oct-18 16:29N 40°39' W 074°10'0 0.0
2017-Oct-18 15:59N 40°39' W 074°10'0 0.0
2017-Oct-18 15:26N 40°39' W 074°10'0 0.0
2017-Oct-18 14:59N 40°39' W 074°10'0 0.0
2017-Oct-18 13:56N 40°39' W 074°10'0 0.0
2017-Oct-18 13:29N 40°39' W 074°10'0 0.0
2017-Oct-18 12:59N 40°39' W 074°10'0 0.0
2017-Oct-18 12:23N 40°39' W 074°10'0 0.0
2017-Oct-18 11:59N 40°39' W 074°10'0 0.0
2017-Oct-18 11:30N 40°39' W 074°10'1 3.0
2017-Oct-18 11:00N 40°39' W 074°08'4 7.9
2017-Oct-18 10:30N 40°39' W 074°03'0 0.0
2017-Oct-18 09:58N 40°39' W 074°03'0 0.0
2017-Oct-18 09:28N 40°39' W 074°03'0 0.0
2017-Oct-18 08:58N 40°39' W 074°03'0 0.3
2017-Oct-18 08:28N 40°39' W 074°03'0 0.1
2017-Oct-18 07:58N 40°39' W 074°03'0 0.1
2017-Oct-18 07:28N 40°39' W 074°03'0 0.0
2017-Oct-18 06:58N 40°39' W 074°03'0 0.0
2017-Oct-18 06:28N 40°39' W 074°03'0 0.0
2017-Oct-18 05:58N 40°39' W 074°03'0 0.0
2017-Oct-18 05:28N 40°39' W 074°03'0 0.0
2017-Oct-18 04:58N 40°39' W 074°03'0 0.0
2017-Oct-18 04:28N 40°39' W 074°03'0 0.1
2017-Oct-18 03:58N 40°39' W 074°03'0 0.1
2017-Oct-18 03:28N 40°39' W 074°03'0 0.1
2017-Oct-18 02:58N 40°39' W 074°03'0 0.2
2017-Oct-18 02:28N 40°39' W 074°03'0 0.0
2017-Oct-18 01:58N 40°39' W 074°03'0 0.1
2017-Oct-18 01:28N 40°39' W 074°03'0 0.1
2017-Oct-18 00:58N 40°39' W 074°03'0 0.0
2017-Oct-18 00:28N 40°39' W 074°03'0 0.1
2017-Oct-17 23:58N 40°39' W 074°03'0 0.0
2017-Oct-17 23:31N 40°39' W 074°03'0 0.0
2017-Oct-17 23:01N 40°39' W 074°03'0 0.0
2017-Oct-17 22:31N 40°39' W 074°03'0 0.1
2017-Oct-17 22:01N 40°39' W 074°03'1 1.7
2017-Oct-17 21:31N 40°39' W 074°04'4 8.0
2017-Oct-17 21:00N 40°38' W 074°09'2 3.2
2017-Oct-17 20:30N 40°39' W 074°07'3 6.8
2017-Oct-17 20:01N 40°39' W 074°03'0 0.4
2017-Oct-17 19:31N 40°39' W 074°03'2 4.7
2017-Oct-17 19:01N 40°37' W 074°03'4 7.6
2017-Oct-17 18:30N 40°33' W 074°02'4 7.4
2017-Oct-17 17:58N 40°30' W 073°58'4 6.8
2017-Oct-17 17:24N 40°28' W 073°53'39 7.5
2017-Oct-17 12:14N 39°50' W 073°57'2 7.3
2017-Oct-17 11:59N 39°48' W 073°57'4 7.3
2017-Oct-17 11:29N 39°44' W 073°58'4 7.4
2017-Oct-17 11:00N 39°41' W 074°00'4 7.4
2017-Oct-17 10:30N 39°38' W 074°02'4 7.5
2017-Oct-17 09:58N 39°34' W 074°05'  
Track history (hours):
 
Tides and Currents Weather Stations Pressure Air Temp Water Temp Dewpoint Dewpoint Depression Visibility Wind Speed Wind Dir Waves Ship Positions

Tasman Sea

Owner: Kirby Offshore Marine, LLC, Staten Island, NY. More information available from US FCC via Universal Licensing System and Coast Guard Vessel Documentation Center.

Last reported at 2017-Oct-23 07:59 UTC. Time now 2017-Oct-23 08:28 UTC.
Position N 42°23' W 071°03'.

Length 134 m; draft 6.7 m.

Type: Tug. MMSI: 366910960.

Date/timePositionNaut miles runAvg speedWind from/ knotsBaromVisibWave heightAir tempDewpointWater temp
2017-Oct-23 07:59N 42°23' W 071°03'0 0.0
2017-Oct-23 07:29N 42°23' W 071°03'0 0.0
2017-Oct-23 06:59N 42°23' W 071°03'0 0.0
2017-Oct-23 06:29N 42°23' W 071°03'0 0.0
2017-Oct-23 05:59N 42°23' W 071°03'0 0.0
2017-Oct-23 05:29N 42°23' W 071°03'0 0.0
2017-Oct-23 04:59N 42°23' W 071°03'0 0.0
2017-Oct-23 04:29N 42°23' W 071°03'0 0.0
2017-Oct-23 03:59N 42°23' W 071°03'0 0.0
2017-Oct-23 03:26N 42°23' W 071°03'0 0.0
2017-Oct-23 02:59N 42°23' W 071°03'0 0.0
2017-Oct-23 02:29N 42°23' W 071°03'0 0.1
2017-Oct-23 01:59N 42°23' W 071°03'0 0.0
2017-Oct-23 01:29N 42°23' W 071°03'0 0.0
2017-Oct-23 01:00N 42°23' W 071°03'0 0.0
2017-Oct-23 00:30N 42°23' W 071°03'0 0.1
2017-Oct-23 00:00N 42°23' W 071°03'2 3.5
2017-Oct-22 23:30N 42°22' W 071°02'3 6.2
2017-Oct-22 23:00N 42°20' W 070°59'3 5.4
2017-Oct-22 22:30N 42°21' W 070°56'3 6.2
2017-Oct-22 22:00N 42°23' W 070°52'3 6.9
2017-Oct-22 21:30N 42°22' W 070°48'4 7.2
2017-Oct-22 21:00N 42°19' W 070°44'4 7.3
2017-Oct-22 20:30N 42°16' W 070°41'4 7.2
2017-Oct-22 20:00N 42°13' W 070°39'4 7.3
2017-Oct-22 19:30N 42°10' W 070°36'4 7.3
2017-Oct-22 19:00N 42°07' W 070°34'4 7.3
2017-Oct-22 18:30N 42°03' W 070°33'4 7.3
2017-Oct-22 18:00N 41°60' W 070°31'4 7.4
2017-Oct-22 17:30N 41°56' W 070°30'4 7.3
2017-Oct-22 17:00N 41°53' W 070°29'3 7.1
2017-Oct-22 16:30N 41°49' W 070°28'13 6.8
2017-Oct-22 14:38N 41°41' W 070°41'1 6.2
2017-Oct-22 14:30N 41°40' W 070°41'35 7.0
2017-Oct-22 09:35N 41°15' W 071°13'1 7.2
2017-Oct-22 09:30N 41°14' W 071°13'4 7.2
2017-Oct-22 09:00N 41°12' W 071°16'9 6.7
2017-Oct-22 07:41N 41°07' W 071°26'18 7.1
2017-Oct-22 05:09N 40°60' W 071°48'1 7.2
2017-Oct-22 05:00N 40°60' W 071°49'4 7.3
2017-Oct-22 04:30N 40°59' W 071°54'4 7.3
2017-Oct-22 04:00N 40°57' W 071°58'4 7.3
2017-Oct-22 03:28N 40°56' W 072°03'4 7.5
2017-Oct-22 03:00N 40°54' W 072°07'4 7.6
2017-Oct-22 02:28N 40°53' W 072°12'4 7.6
2017-Oct-22 02:00N 40°52' W 072°17'10 7.5
2017-Oct-22 00:37N 40°48' W 072°30'19 7.4
2017-Oct-21 22:06N 40°40' W 072°52'7 7.2
2017-Oct-21 21:06N 40°38' W 073°01'5 7.1
2017-Oct-21 20:24N 40°36' W 073°07'3 7.1
2017-Oct-21 19:59N 40°35' W 073°11'4 7.1
2017-Oct-21 19:27N 40°34' W 073°15'18 7.3
2017-Oct-21 16:57N 40°30' W 073°39'11 7.3
2017-Oct-21 15:28N 40°27' W 073°52'4 6.7
2017-Oct-21 14:56N 40°28' W 073°57'3 6.9
2017-Oct-21 14:30N 40°29' W 074°01'9 6.5
2017-Oct-21 13:04N 40°30' W 074°13'2 0.1
2017-Oct-20 07:25N 40°31' W 074°15'0 0.1
2017-Oct-20 06:59N 40°31' W 074°15'2 3.3
2017-Oct-20 06:30N 40°33' W 074°15'4 7.4
2017-Oct-20 06:00N 40°36' W 074°12'3 6.7
2017-Oct-20 05:31N 40°39' W 074°10'4 7.1
2017-Oct-20 05:01N 40°39' W 074°05'3 5.7
2017-Oct-20 04:31N 40°40' W 074°02'0 0.1
2017-Oct-20 03:59N 40°40' W 074°02'0 0.2
2017-Oct-20 03:29N 40°40' W 074°02'0 0.2
2017-Oct-20 02:59N 40°40' W 074°02'0 0.1
2017-Oct-20 02:29N 40°40' W 074°02'0 0.0
2017-Oct-20 01:59N 40°40' W 074°02'0 0.0
2017-Oct-20 01:29N 40°40' W 074°02'0 0.0
2017-Oct-20 00:59N 40°40' W 074°02'0 0.0
2017-Oct-20 00:29N 40°40' W 074°02'0 0.1
2017-Oct-20 00:00N 40°40' W 074°02'4 7.7
2017-Oct-19 23:30N 40°39' W 074°07'0 0.0
2017-Oct-19 22:59N 40°39' W 074°07'0 0.0
2017-Oct-19 22:26N 40°39' W 074°07'0 0.0
2017-Oct-19 21:56N 40°39' W 074°07'0 0.0
2017-Oct-19 21:29N 40°39' W 074°07'0 0.0
2017-Oct-19 20:32N 40°39' W 074°07'0 0.1
2017-Oct-19 20:23N 40°39' W 074°07'0 0.0
2017-Oct-19 19:59N 40°39' W 074°07'0 0.0
2017-Oct-19 19:30N 40°39' W 074°07'2 4.6
2017-Oct-19 19:00N 40°38' W 074°10'0 0.3
2017-Oct-19 18:29N 40°39' W 074°10'0 0.0
2017-Oct-19 17:59N 40°39' W 074°10'0 0.0
2017-Oct-19 17:26N 40°39' W 074°10'0 0.0
2017-Oct-19 16:56N 40°38' W 074°10'0 0.0
2017-Oct-19 16:29N 40°39' W 074°10'0 0.0
2017-Oct-19 15:53N 40°39' W 074°10'0 0.0
2017-Oct-19 15:29N 40°39' W 074°10'0 0.0
2017-Oct-19 14:59N 40°39' W 074°10'0 0.0
2017-Oct-19 14:29N 40°39' W 074°10'0 0.0
2017-Oct-19 13:59N 40°39' W 074°10'0 0.0
2017-Oct-19 13:26N 40°39' W 074°10'0 0.0
2017-Oct-19 12:59N 40°39' W 074°10'0 0.0
2017-Oct-19 12:29N 40°39' W 074°10'0 0.0
2017-Oct-19 11:59N 40°39' W 074°10'0 0.0
2017-Oct-19 11:29N 40°39' W 074°10'0 0.6
2017-Oct-19 11:00N 40°38' W 074°09'4 8.7
2017-Oct-19 10:30N 40°39' W 074°04'1 1.5
2017-Oct-19 10:00N 40°39' W 074°03'0 0.1
2017-Oct-19 09:30N 40°39' W 074°03'0 0.3
2017-Oct-19 09:00N 40°39' W 074°03'0 0.2
2017-Oct-19 08:30N 40°39' W 074°03'0 0.0
2017-Oct-19 08:00N 40°39' W 074°03'0 0.0
2017-Oct-19 07:30N 40°39' W 074°03'0 0.0
2017-Oct-19 07:00N 40°39' W 074°03'0 0.0
2017-Oct-19 06:30N 40°39' W 074°03'0 0.0
2017-Oct-19 06:00N 40°39' W 074°03'0 0.0
2017-Oct-19 05:30N 40°39' W 074°03'0 0.0
2017-Oct-19 05:00N 40°39' W 074°03'0 0.0
2017-Oct-19 04:30N 40°39' W 074°03'0 0.1
2017-Oct-19 04:00N 40°39' W 074°03'0 0.1
2017-Oct-19 03:30N 40°39' W 074°03'0 0.1
2017-Oct-19 03:00N 40°39' W 074°03'0 0.3
2017-Oct-19 02:30N 40°39' W 074°03'0 0.1
2017-Oct-19 02:00N 40°39' W 074°03'0 0.0
2017-Oct-19 01:30N 40°39' W 074°03'0 0.0
2017-Oct-19 01:00N 40°39' W 074°03'0 0.0
2017-Oct-19 00:30N 40°39' W 074°03'0 0.0
2017-Oct-19 00:00N 40°39' W 074°03'0 0.0
2017-Oct-18 23:30N 40°39' W 074°03'0 0.1
2017-Oct-18 23:00N 40°39' W 074°03'0 0.0
2017-Oct-18 22:30N 40°39' W 074°03'0 0.0
2017-Oct-18 22:00N 40°39' W 074°03'0 0.0
2017-Oct-18 21:30N 40°39' W 074°03'0 0.1
2017-Oct-18 21:00N 40°39' W 074°03'0 0.1
2017-Oct-18 20:30N 40°39' W 074°03'0 0.3
2017-Oct-18 20:00N 40°39' W 074°03'0 0.1
2017-Oct-18 19:30N 40°39' W 074°03'0 0.0
2017-Oct-18 19:00N 40°39' W 074°03'0 0.1
2017-Oct-18 18:30N 40°39' W 074°03'0 0.0
2017-Oct-18 18:01N 40°39' W 074°03'0 0.5
2017-Oct-18 17:30N 40°39' W 074°03'5 9.6
2017-Oct-18 17:00N 40°38' W 074°10'0 0.4
2017-Oct-18 16:29N 40°39' W 074°10'0 0.0
2017-Oct-18 15:59N 40°39' W 074°10'0 0.0
2017-Oct-18 15:26N 40°39' W 074°10'0 0.0
2017-Oct-18 14:59N 40°39' W 074°10'0 0.0
2017-Oct-18 13:56N 40°39' W 074°10'0 0.0
2017-Oct-18 13:29N 40°39' W 074°10'0 0.0
2017-Oct-18 12:59N 40°39' W 074°10'0 0.0
2017-Oct-18 12:23N 40°39' W 074°10'0 0.0
2017-Oct-18 11:59N 40°39' W 074°10'0 0.0
2017-Oct-18 11:30N 40°39' W 074°10'1 3.0
2017-Oct-18 11:00N 40°39' W 074°08'4 7.9
2017-Oct-18 10:30N 40°39' W 074°03'0 0.0
2017-Oct-18 09:58N 40°39' W 074°03'0 0.0
2017-Oct-18 09:28N 40°39' W 074°03'0 0.0
2017-Oct-18 08:58N 40°39' W 074°03'0 0.3
2017-Oct-18 08:28N 40°39' W 074°03'0 0.1
2017-Oct-18 07:58N 40°39' W 074°03'0 0.1
2017-Oct-18 07:28N 40°39' W 074°03'0 0.0
2017-Oct-18 06:58N 40°39' W 074°03'0 0.0
2017-Oct-18 06:28N 40°39' W 074°03'0 0.0
2017-Oct-18 05:58N 40°39' W 074°03'0 0.0
2017-Oct-18 05:28N 40°39' W 074°03'0 0.0
2017-Oct-18 04:58N 40°39' W 074°03'0 0.0
2017-Oct-18 04:28N 40°39' W 074°03'0 0.1
2017-Oct-18 03:58N 40°39' W 074°03'0 0.1
2017-Oct-18 03:28N 40°39' W 074°03'0 0.1
2017-Oct-18 02:58N 40°39' W 074°03'0 0.2
2017-Oct-18 02:28N 40°39' W 074°03'0 0.0
2017-Oct-18 01:58N 40°39' W 074°03'0 0.1
2017-Oct-18 01:28N 40°39' W 074°03'0 0.1
2017-Oct-18 00:58N 40°39' W 074°03'0 0.0
2017-Oct-18 00:28N 40°39' W 074°03'0 0.1
2017-Oct-17 23:58N 40°39' W 074°03'0 0.0
2017-Oct-17 23:31N 40°39' W 074°03'0 0.0
2017-Oct-17 23:01N 40°39' W 074°03'0 0.0
2017-Oct-17 22:31N 40°39' W 074°03'0 0.1
2017-Oct-17 22:01N 40°39' W 074°03'1 1.7
2017-Oct-17 21:31N 40°39' W 074°04'4 8.0
2017-Oct-17 21:00N 40°38' W 074°09'2 3.2
2017-Oct-17 20:30N 40°39' W 074°07'3 6.8
2017-Oct-17 20:01N 40°39' W 074°03'0 0.4
2017-Oct-17 19:31N 40°39' W 074°03'2 4.7
2017-Oct-17 19:01N 40°37' W 074°03'4 7.6
2017-Oct-17 18:30N 40°33' W 074°02'4 7.4
2017-Oct-17 17:58N 40°30' W 073°58'4 6.8
2017-Oct-17 17:24N 40°28' W 073°53'39 7.5
2017-Oct-17 12:14N 39°50' W 073°57'2 7.3
2017-Oct-17 11:59N 39°48' W 073°57'4 7.3
2017-Oct-17 11:29N 39°44' W 073°58'4 7.4
2017-Oct-17 11:00N 39°41' W 074°00'4 7.4
2017-Oct-17 10:30N 39°38' W 074°02'4 7.5
2017-Oct-17 09:58N 39°34' W 074°05'  

Dump ship's entire track history